FMEPFMEE

Guest
Details From FMEP - St Pierre Pierrefonds
To FMEE - St Denis Gillot
Flight Number -
Tags Routegen Generated
Created
Modified
Stats Distance 42 nm / 78 km
Max Altitude 100 ft / 30 m
Waypoints 5
Social Downloads 7
Likes 0
Share VATSIM

Download

Looking for another format? Having issues loading an existing format? Contact us
Advertisement - Login to hide

Notes

Departing runway 12 FMEP. Arriving runway 10 FMEE.

Route

FMEP -21.37_+055.49 -21.15_+055.59 -20.92_+055.69 FMEE

ID Type Via Altitude Latitude Longitude Leg Dist Tot Dist Heading (true) Name
O FMEP APT - 100 ft / 30 m -21.32532˚ 55.43058˚ - 0 nm - -
-21.37_+055.49 DME - 100 ft / 30 m -21.37086˚ 55.49096˚ 4 nm 4 nm 129° / 129° -
-21.15_+055.59 DME - 100 ft / 30 m -21.14681˚ 55.58866˚ 14 nm 18 nm 22° / 22° -
-20.92_+055.69 DME - 100 ft / 30 m -20.92276˚ 55.68637˚ 14 nm 33 nm 22° / 22° -
O FMEE APT - 0 ft / 0 m -20.89211˚ 55.53495˚ 8 nm 42 nm 282° / 282° -

Altitude Profile

Advertisement - Login to hide

FMEP

Details ICAO FMEP (ZSE)
Name ST PIERRE PIERREFONDS
Region Comoros, Mayotte, Réunion and Madagascar
Timezone Unknown (UTC+0.0)
Stats Elevation 56 ft / 17 m (AMSL)
Location -21.320039° 55.423581°
Runways 1
Magnetic Variation 19.532° W

METAR

FMEP 122000Z AUTO 02003KT 350V060 9999 FEW056 OVC180 26/21 Q1016

Decode

TAF

Not found

Departure Runways

ID Width Length Bearing (true) Bearing (mag) Surface Threshold Offset Overrun Length
15 98 ft / 30 m 6,125 ft / 1,867 m 129.02° 148.55° Asphalt 0 ft / 0 m 0 ft / 0 m
33 98 ft / 30 m 6,125 ft / 1,867 m 309.01° 328.54° Asphalt 0 ft / 0 m 0 ft / 0 m

FMEE

Details ICAO FMEE (RUN)
Name St Denis Gillot
Region Comoros, Mayotte, Réunion and Madagascar
Timezone Indian/Reunion (UTC+4.0)
Stats Elevation 66 ft / 20 m (AMSL)
Location -20.889313° 55.517752°
Runways 2
Magnetic Variation 18.981° W

METAR

FMEE 122000Z AUTO 14007KT 9999 FEW056 SCT200 26/21 Q1016 NOSIG

Decode

TAF

TAF FMEE 121700Z 1218/1324 14008KT 9999 FEW030 SCT080 TEMPO 1301/1306 4000 SHRA FEW020TCU BECMG 1304/1305 08010KT BECMG 1314/1316 12010KT

Decode

Destination Runways

ID Width Length Bearing (true) Bearing (mag) Surface Threshold Offset Overrun Length
12 148 ft / 45 m 10,581 ft / 3,225 m 102.26° 121.24° Asphalt 397 ft / 121 m 148 ft / 45 m
14 148 ft / 45 m 8,842 ft / 2,695 m 116.55° 135.53° Asphalt 338 ft / 103 m 98 ft / 30 m
30 148 ft / 45 m 10,581 ft / 3,225 m 282.25° 301.23° Asphalt 0 ft / 0 m 0 ft / 0 m
32 148 ft / 45 m 8,842 ft / 2,695 m 296.54° 315.52° Asphalt 1,175 ft / 358 m 377 ft / 115 m

Approach Navaids

Runway Type Ident Frequency Range Bearing (true) Bearing (mag) Slope Elevation
14 Localiser SD 110.30 MHz 18 nm / 33 km 116.63° 135.61° - 66 ft / 20 m (AMSL)
14 Glidescope SD 110.30 MHz 10 nm / 19 km 116.55° 135.53° 3.00° 46 ft / 14 m (AMSL)
14 DME SD 110.30 MHz 18 nm / 33 km - - - 46 ft / 14 m (AMSL)

Popular Alternatives